createdAt,value
2018-11-12T00:02:13.227Z,9.76
2018-11-12T00:04:40.798Z,9.85
2018-11-12T00:07:08.322Z,9.90
2018-11-12T00:09:35.787Z,10.05
2018-11-12T00:12:03.446Z,10.07
2018-11-12T00:14:30.918Z,10.25
2018-11-12T00:16:58.449Z,10.27
2018-11-12T00:19:26.008Z,10.31
2018-11-12T00:21:53.610Z,10.38
2018-11-12T00:24:21.049Z,10.43
2018-11-12T00:26:48.658Z,10.42
2018-11-12T00:29:16.326Z,10.44
2018-11-12T00:31:44.558Z,10.46
2018-11-12T00:34:12.168Z,10.45
2018-11-12T00:36:39.804Z,10.50
2018-11-12T00:39:07.977Z,10.50
2018-11-12T00:41:35.497Z,10.49
2018-11-12T00:44:03.178Z,10.54
2018-11-12T00:46:30.802Z,10.56
2018-11-12T00:48:58.670Z,10.58
2018-11-12T00:51:26.337Z,10.59
2018-11-12T00:53:53.830Z,10.62
2018-11-12T00:56:21.513Z,10.60
2018-11-12T00:58:49.002Z,10.52
2018-11-12T01:01:16.644Z,10.53
2018-11-12T01:03:44.155Z,10.55
2018-11-12T01:06:11.866Z,10.48
2018-11-12T01:08:39.508Z,10.31
2018-11-12T01:11:07.007Z,10.33
2018-11-12T01:13:34.520Z,10.37
2018-11-12T01:16:02.024Z,10.31
2018-11-12T01:18:29.647Z,9.89
2018-11-12T01:20:57.296Z,9.74
2018-11-12T01:23:25.932Z,9.83
2018-11-12T01:25:54.062Z,9.69
2018-11-12T01:28:21.595Z,9.47
2018-11-12T01:30:49.279Z,9.51
2018-11-12T01:33:16.777Z,9.38
2018-11-12T01:35:44.299Z,9.20
2018-11-12T01:38:11.807Z,9.16
2018-11-12T01:40:39.342Z,9.05
2018-11-12T01:43:06.960Z,8.99
2018-11-12T01:45:34.454Z,8.91
2018-11-12T01:48:01.934Z,8.69
2018-11-12T01:50:29.583Z,8.84
2018-11-12T01:52:57.249Z,8.99
2018-11-12T01:55:24.743Z,8.75
2018-11-12T01:57:52.238Z,8.59
2018-11-12T02:00:21.120Z,8.52
2018-11-12T02:02:49.834Z,8.51
2018-11-12T02:05:17.994Z,8.43
2018-11-12T02:07:45.530Z,8.38
2018-11-12T02:10:14.746Z,8.39
2018-11-12T02:12:42.515Z,8.39
2018-11-12T02:15:11.803Z,8.54
2018-11-12T02:17:39.338Z,8.84
2018-11-12T02:20:08.287Z,8.99
2018-11-12T02:22:35.978Z,9.44
2018-11-12T02:25:03.647Z,9.75
2018-11-12T02:27:31.178Z,9.99
2018-11-12T02:29:58.835Z,10.06
2018-11-12T02:32:26.320Z,10.17
2018-11-12T02:34:54.146Z,10.16
2018-11-12T02:37:21.628Z,10.21
2018-11-12T02:39:49.119Z,10.29
2018-11-12T02:42:16.789Z,10.36
2018-11-12T02:44:44.287Z,10.37
2018-11-12T02:47:11.848Z,10.46
2018-11-12T02:49:39.503Z,10.49
2018-11-12T02:52:07.158Z,10.05
2018-11-12T02:54:34.931Z,9.63
2018-11-12T02:57:02.459Z,9.47
2018-11-12T02:59:30.489Z,9.34
2018-11-12T03:01:57.953Z,9.37
2018-11-12T03:04:25.611Z,9.01
2018-11-12T03:06:53.231Z,8.90
2018-11-12T03:09:20.854Z,8.94
2018-11-12T03:11:48.365Z,8.72
2018-11-12T03:14:15.872Z,8.57
2018-11-12T03:16:43.397Z,8.44
2018-11-12T03:19:11.057Z,8.37
2018-11-12T03:21:38.643Z,8.29
2018-11-12T03:24:06.185Z,8.25
2018-11-12T03:26:33.811Z,8.04
2018-11-12T03:29:01.359Z,8.00
2018-11-12T03:31:28.972Z,8.05
2018-11-12T03:33:56.480Z,8.18
2018-11-12T03:36:23.970Z,7.90
2018-11-12T03:38:51.464Z,7.95
2018-11-12T03:41:19.374Z,7.90
2018-11-12T03:43:47.011Z,7.67
2018-11-12T03:46:14.586Z,7.65
2018-11-12T03:48:42.226Z,7.84
2018-11-12T03:51:09.841Z,7.66
2018-11-12T03:53:37.351Z,7.62
2018-11-12T03:56:05.410Z,7.40
2018-11-12T03:58:33.021Z,7.51
2018-11-12T04:01:01.657Z,7.83
2018-11-12T04:03:29.320Z,7.91
2018-11-12T04:05:56.823Z,7.95
2018-11-12T04:08:24.688Z,8.04
2018-11-12T04:10:52.252Z,8.15
2018-11-12T04:13:19.947Z,8.28
2018-11-12T04:15:47.504Z,8.34
2018-11-12T04:18:15.155Z,8.51
2018-11-12T04:20:42.810Z,8.67
2018-11-12T04:23:11.562Z,8.89
2018-11-12T04:25:40.139Z,9.09
2018-11-12T04:28:07.648Z,9.35
2018-11-12T04:30:35.598Z,9.57
2018-11-12T04:33:03.155Z,9.90
2018-11-12T04:35:30.735Z,10.13
2018-11-12T04:37:58.647Z,10.27
2018-11-12T04:40:26.158Z,10.45
2018-11-12T04:42:53.673Z,10.59
2018-11-12T04:45:22.359Z,10.55
2018-11-12T04:47:50.544Z,10.35
2018-11-12T04:50:19.828Z,10.53
2018-11-12T04:52:47.619Z,10.62
2018-11-12T04:55:16.733Z,10.48
2018-11-12T04:57:45.967Z,10.40
2018-11-12T05:00:15.180Z,10.30
2018-11-12T05:02:42.713Z,9.83
2018-11-12T05:05:12.979Z,9.78
2018-11-12T05:07:40.695Z,9.56
2018-11-12T05:10:10.991Z,9.62
2018-11-12T05:12:39.008Z,9.59
2018-11-12T05:15:07.319Z,9.62
2018-11-12T05:17:35.027Z,9.54
2018-11-12T05:20:02.583Z,9.40
2018-11-12T05:22:30.083Z,9.59
2018-11-12T05:24:57.706Z,9.97
2018-11-12T05:27:25.382Z,10.28
2018-11-12T05:29:53.056Z,10.56
2018-11-12T05:32:20.567Z,10.82
2018-11-12T05:34:48.263Z,10.82
2018-11-12T05:37:15.747Z,10.84
2018-11-12T05:39:43.399Z,10.73
2018-11-12T05:42:10.897Z,10.94
2018-11-12T05:44:38.411Z,11.12
2018-11-12T05:47:06.109Z,11.35
2018-11-12T05:49:33.778Z,11.46
2018-11-12T05:52:02.958Z,11.51
2018-11-12T05:54:30.592Z,11.48
2018-11-12T05:56:58.103Z,11.67
2018-11-12T05:59:25.588Z,11.73
2018-11-12T06:01:53.099Z,11.78
2018-11-12T06:04:20.613Z,11.86
2018-11-12T06:06:48.408Z,11.64
2018-11-12T06:09:15.890Z,11.23
2018-11-12T06:11:43.511Z,10.82
2018-11-12T06:14:11.205Z,10.83
2018-11-12T06:16:38.755Z,10.58
2018-11-12T06:19:06.422Z,10.40
2018-11-12T06:21:34.114Z,10.24
2018-11-12T06:24:01.997Z,10.29
2018-11-12T06:26:29.494Z,10.35
2018-11-12T06:28:57.010Z,10.12
2018-11-12T06:31:24.778Z,10.02
2018-11-12T06:33:52.214Z,10.25
2018-11-12T06:36:19.694Z,10.36
2018-11-12T06:38:47.271Z,10.23
2018-11-12T06:41:14.770Z,10.43
2018-11-12T06:43:42.440Z,10.49
2018-11-12T06:46:10.623Z,10.49
2018-11-12T06:48:38.111Z,10.48
2018-11-12T06:51:05.664Z,10.53
2018-11-12T06:53:33.368Z,10.41
2018-11-12T06:56:01.226Z,10.33
2018-11-12T06:58:28.728Z,10.20
2018-11-12T07:00:56.303Z,10.29
2018-11-12T07:03:23.876Z,10.41
2018-11-12T07:05:51.958Z,10.50
2018-11-12T07:08:19.617Z,10.56
2018-11-12T07:10:47.104Z,10.63
2018-11-12T07:13:14.783Z,10.93
2018-11-12T07:15:45.423Z,11.04
2018-11-12T07:18:14.231Z,11.24
2018-11-12T07:20:41.741Z,11.15
2018-11-12T07:23:09.253Z,11.27
2018-11-12T07:25:36.747Z,11.53
2018-11-12T07:28:04.430Z,11.67
2018-11-12T07:30:32.030Z,12.30
2018-11-12T07:32:59.903Z,13.26
2018-11-12T07:35:27.551Z,14.15
2018-11-12T07:37:55.851Z,15.34
2018-11-12T07:40:23.844Z,16.05
2018-11-12T07:42:51.517Z,15.76
2018-11-12T07:45:20.162Z,15.68
2018-11-12T07:47:48.566Z,15.35
2018-11-12T07:50:17.655Z,15.48
2018-11-12T07:52:45.250Z,15.59
2018-11-12T07:55:14.181Z,15.58
2018-11-12T07:57:42.086Z,15.86
2018-11-12T08:00:11.455Z,16.41
2018-11-12T08:02:39.912Z,16.96
2018-11-12T08:05:07.834Z,17.78
2018-11-12T08:07:35.403Z,19.25
2018-11-12T08:10:03.412Z,20.86
2018-11-12T08:12:30.990Z,22.55
2018-11-12T08:14:58.483Z,23.52
2018-11-12T08:17:26.286Z,24.99
2018-11-12T08:19:53.859Z,25.79
2018-11-12T08:22:21.590Z,26.56
2018-11-12T08:24:49.330Z,27.16
2018-11-12T08:27:16.790Z,24.88
2018-11-12T08:29:44.403Z,24.82
2018-11-12T08:32:11.863Z,26.54
2018-11-12T08:34:39.364Z,27.87
2018-11-12T08:37:09.459Z,29.45
2018-11-12T08:39:37.198Z,31.36
2018-11-12T08:42:04.699Z,32.04
2018-11-12T08:44:32.412Z,31.74
2018-11-12T08:47:00.200Z,30.38
2018-11-12T08:49:27.790Z,27.57
2018-11-12T08:51:55.331Z,25.04
2018-11-12T08:54:22.864Z,22.92
2018-11-12T08:56:50.402Z,21.56
2018-11-12T08:59:18.036Z,19.61
2018-11-12T09:01:45.429Z,18.79
2018-11-12T09:04:13.198Z,18.75
2018-11-12T09:06:40.598Z,19.59
2018-11-12T09:09:09.415Z,19.90
2018-11-12T09:11:36.952Z,19.17
2018-11-12T09:14:04.891Z,18.40
2018-11-12T09:16:32.423Z,18.32
2018-11-12T09:18:59.904Z,19.43
2018-11-12T09:21:28.417Z,20.03
2018-11-12T09:23:55.976Z,20.15
2018-11-12T09:26:23.594Z,22.53
2018-11-12T09:28:51.112Z,22.64
2018-11-12T09:31:20.058Z,21.42
2018-11-12T09:33:46.367Z,20.42
2018-11-12T09:36:13.821Z,18.98
2018-11-12T09:38:41.417Z,17.51
2018-11-12T09:41:08.865Z,16.94
2018-11-12T09:43:36.358Z,16.70
2018-11-12T09:46:04.126Z,16.45
2018-11-12T09:48:31.566Z,16.01
2018-11-12T09:50:59.042Z,16.21
2018-11-12T09:53:26.527Z,17.74
2018-11-12T09:55:54.104Z,18.92
2018-11-12T09:58:21.631Z,19.17
2018-11-12T10:00:49.476Z,19.65
2018-11-12T10:03:23.714Z,19.92
2018-11-12T10:05:51.291Z,20.79
2018-11-12T10:08:19.512Z,22.15
2018-11-12T10:10:51.267Z,23.12
2018-11-12T10:13:21.410Z,22.05
2018-11-12T10:15:49.464Z,20.33
2018-11-12T10:20:41.058Z,19.23
2018-11-12T10:23:08.650Z,18.76
2018-11-12T10:25:36.139Z,19.03
2018-11-12T10:28:03.670Z,19.93
2018-11-12T10:30:31.231Z,21.78
2018-11-12T10:32:58.818Z,23.39
2018-11-12T10:35:26.310Z,23.88
2018-11-12T10:37:53.830Z,24.29
2018-11-12T10:40:23.520Z,24.87
2018-11-12T10:42:51.052Z,26.12
2018-11-12T10:45:18.705Z,26.09
2018-11-12T10:47:47.344Z,25.65
2018-11-12T10:50:15.062Z,25.42
2018-11-12T10:52:42.579Z,25.56
2018-11-12T10:55:11.321Z,26.44
2018-11-12T10:57:38.743Z,28.50
2018-11-12T11:00:15.055Z,27.82
2018-11-12T11:02:48.259Z,26.44
2018-11-12T11:05:15.814Z,25.04
2018-11-12T11:07:43.304Z,23.73
2018-11-12T11:10:10.909Z,23.15
2018-11-12T11:12:38.478Z,22.49
2018-11-12T11:15:06.178Z,21.21
2018-11-12T11:17:33.682Z,20.37
2018-11-12T11:20:01.330Z,19.41
2018-11-12T11:22:28.938Z,19.02
2018-11-12T11:24:56.470Z,18.81
2018-11-12T11:27:24.243Z,18.35
2018-11-12T11:29:52.412Z,18.22
2018-11-12T11:32:19.984Z,18.14
2018-11-12T11:34:47.592Z,17.71
2018-11-12T11:37:15.146Z,17.85
2018-11-12T11:39:42.740Z,17.93
2018-11-12T11:42:10.318Z,17.64
2018-11-12T11:44:37.921Z,17.72
2018-11-12T11:47:05.542Z,17.52
2018-11-12T11:49:33.167Z,17.57
2018-11-12T11:52:01.304Z,17.70
2018-11-12T11:54:29.561Z,17.76
2018-11-12T11:56:57.173Z,17.53
2018-11-12T11:59:24.924Z,17.38
2018-11-12T12:01:52.538Z,17.45
2018-11-12T12:04:20.014Z,17.38
2018-11-12T12:06:47.503Z,17.46
2018-11-12T12:09:15.047Z,17.38
2018-11-12T12:11:42.604Z,17.42
2018-11-12T12:14:10.107Z,17.44
2018-11-12T12:16:37.621Z,17.23
2018-11-12T12:19:05.451Z,17.44
2018-11-12T12:21:32.956Z,17.55
2018-11-12T12:24:00.451Z,17.49
2018-11-12T12:26:27.974Z,17.54
2018-11-12T12:28:55.441Z,17.47
2018-11-12T12:31:22.919Z,17.53
2018-11-12T12:33:50.498Z,17.49
2018-11-12T12:36:18.114Z,17.37
2018-11-12T12:38:45.602Z,17.32
2018-11-12T12:41:13.095Z,17.29
2018-11-12T12:43:40.633Z,17.30
2018-11-12T12:46:08.287Z,17.36
2018-11-12T12:48:35.823Z,17.48
2018-11-12T12:51:03.682Z,17.38
2018-11-12T12:53:31.171Z,17.29
2018-11-12T12:55:58.715Z,17.27
2018-11-12T12:58:26.198Z,17.09
2018-11-12T13:00:54.985Z,17.14
2018-11-12T13:03:22.501Z,17.08
2018-11-12T13:05:50.099Z,17.18
2018-11-12T13:08:17.698Z,17.15
2018-11-12T13:10:45.191Z,17.20
2018-11-12T13:13:12.720Z,17.25
2018-11-12T13:15:40.218Z,17.35
2018-11-12T13:18:07.753Z,17.42
2018-11-12T13:20:35.281Z,17.47
2018-11-12T13:23:02.911Z,17.47
2018-11-12T13:25:30.407Z,17.52
2018-11-12T13:27:57.898Z,17.56
2018-11-12T13:30:25.415Z,17.60
2018-11-12T13:32:53.129Z,17.63
2018-11-12T13:35:22.195Z,17.65
2018-11-12T13:37:49.703Z,17.63
2018-11-12T13:40:19.539Z,17.54
2018-11-12T13:42:49.583Z,17.64
2018-11-12T13:45:17.083Z,17.55
2018-11-12T13:47:45.027Z,17.36
2018-11-12T13:50:15.762Z,17.38
2018-11-12T13:52:43.529Z,17.41
2018-11-12T13:55:12.298Z,17.40
2018-11-12T13:57:39.914Z,17.42
2018-11-12T14:00:10.633Z,17.31
2018-11-12T14:02:38.149Z,17.07
2018-11-12T14:05:06.616Z,16.99
2018-11-12T14:07:34.215Z,17.00
2018-11-12T14:10:01.950Z,16.82
2018-11-12T14:12:29.479Z,16.76
2018-11-12T14:14:56.978Z,16.60
2018-11-12T14:17:24.500Z,16.59
2018-11-12T14:19:52.001Z,16.42
2018-11-12T14:22:19.666Z,16.38
2018-11-12T14:24:47.179Z,16.30
2018-11-12T14:27:14.878Z,16.30
2018-11-12T14:29:42.379Z,16.24
2018-11-12T14:32:09.891Z,16.16
2018-11-12T14:34:37.838Z,16.27
2018-11-12T14:37:05.371Z,16.21
2018-11-12T14:39:32.893Z,16.22
2018-11-12T14:42:01.623Z,16.28
2018-11-12T14:44:29.195Z,16.21
2018-11-12T14:46:56.862Z,16.11
2018-11-12T14:49:24.404Z,16.07
2018-11-12T14:51:52.051Z,15.90
2018-11-12T14:54:19.674Z,16.02
2018-11-12T14:56:47.305Z,16.05
2018-11-12T14:59:14.850Z,15.80
2018-11-12T15:01:42.515Z,15.71
2018-11-12T15:04:10.088Z,15.75
2018-11-12T15:06:37.737Z,15.80
2018-11-12T15:09:08.301Z,15.75
2018-11-12T15:11:35.927Z,15.58
2018-11-12T15:14:03.490Z,15.49
2018-11-12T15:16:31.119Z,15.42
2018-11-12T15:18:58.770Z,15.37
2018-11-12T15:21:26.398Z,15.35
2018-11-12T15:23:54.057Z,15.29
2018-11-12T15:26:21.605Z,15.21
2018-11-12T15:28:49.214Z,15.19
2018-11-12T15:31:16.729Z,15.12
2018-11-12T15:33:44.939Z,15.08
2018-11-12T15:36:12.698Z,15.06
2018-11-12T15:38:40.204Z,15.07
2018-11-12T15:41:07.956Z,15.02
2018-11-12T15:43:35.570Z,15.05
2018-11-12T15:46:03.204Z,14.91
2018-11-12T15:48:30.824Z,14.87
2018-11-12T15:50:58.384Z,14.86
2018-11-12T15:53:25.826Z,14.84
2018-11-12T15:55:53.358Z,14.74
2018-11-12T15:58:20.914Z,14.75
2018-11-12T16:00:48.376Z,14.73
2018-11-12T16:03:15.890Z,14.66
2018-11-12T16:05:43.550Z,14.60
2018-11-12T16:08:11.124Z,14.54
2018-11-12T16:10:38.642Z,14.63
2018-11-12T16:13:06.210Z,14.55
2018-11-12T16:15:33.761Z,14.60
2018-11-12T16:18:01.418Z,14.46
2018-11-12T16:20:29.511Z,14.36
2018-11-12T16:22:59.118Z,14.48
2018-11-12T16:25:27.280Z,14.43
2018-11-12T16:27:54.776Z,14.42
2018-11-12T16:30:23.006Z,14.46
2018-11-12T16:32:50.607Z,14.29
2018-11-12T16:35:19.514Z,14.24
2018-11-12T16:37:47.887Z,14.32
2018-11-12T16:40:15.442Z,14.46
2018-11-12T16:42:44.399Z,14.29
2018-11-12T16:45:12.858Z,14.26
2018-11-12T16:47:40.427Z,14.36
2018-11-12T16:50:08.633Z,14.24
2018-11-12T16:52:36.345Z,14.30
2018-11-12T16:55:04.883Z,14.28
2018-11-12T16:57:32.516Z,14.16
2018-11-12T17:00:00.347Z,14.26
2018-11-12T17:02:27.938Z,14.47
2018-11-12T17:04:55.458Z,14.35
2018-11-12T17:07:23.022Z,14.31
2018-11-12T17:09:50.705Z,14.23
2018-11-12T17:12:18.791Z,14.12
2018-11-12T17:14:46.286Z,14.18
2018-11-12T17:17:13.895Z,14.26
2018-11-12T17:19:41.515Z,14.35
2018-11-12T17:22:09.099Z,14.08
2018-11-12T17:24:36.752Z,13.91
2018-11-12T17:27:04.473Z,13.86
2018-11-12T17:29:31.999Z,14.03
2018-11-12T17:32:01.304Z,13.90
2018-11-12T17:34:28.969Z,14.05
2018-11-12T17:36:56.523Z,13.82
2018-11-12T17:39:24.057Z,13.89
2018-11-12T17:41:51.577Z,13.77
2018-11-12T17:44:19.159Z,13.76
2018-11-12T17:46:46.662Z,13.76
2018-11-12T17:49:14.643Z,13.65
2018-11-12T17:51:42.364Z,13.64
2018-11-12T17:54:09.981Z,13.63
2018-11-12T17:56:37.559Z,13.72
2018-11-12T17:59:05.168Z,13.70
2018-11-12T18:01:32.781Z,13.57
2018-11-12T18:04:00.251Z,13.49
2018-11-12T18:06:28.710Z,13.53
2018-11-12T18:08:56.365Z,13.40
2018-11-12T18:11:24.043Z,13.41
2018-11-12T18:13:51.766Z,13.30
2018-11-12T18:16:19.526Z,13.24
2018-11-12T18:18:48.030Z,13.28
2018-11-12T18:21:15.568Z,13.22
2018-11-12T18:23:43.273Z,13.10
2018-11-12T18:26:10.838Z,13.22
2018-11-12T18:28:38.411Z,13.23
2018-11-12T18:31:06.227Z,13.04
2018-11-12T18:33:34.266Z,12.95
2018-11-12T18:36:02.031Z,13.07
2018-11-12T18:38:29.656Z,13.00
2018-11-12T18:40:58.179Z,13.25
2018-11-12T18:43:25.710Z,13.01
2018-11-12T18:45:53.264Z,13.14
2018-11-12T18:48:20.809Z,13.29
2018-11-12T18:50:48.319Z,13.19
2018-11-12T18:53:15.891Z,12.94
2018-11-12T18:55:43.454Z,12.75
2018-11-12T18:58:11.118Z,12.91
2018-11-12T19:00:38.684Z,12.90
2018-11-12T19:03:06.279Z,13.13
2018-11-12T19:05:33.797Z,13.22
2018-11-12T19:08:01.955Z,13.18
2018-11-12T19:10:31.151Z,13.18
2018-11-12T19:12:58.890Z,13.00
2018-11-12T19:15:29.311Z,13.00
2018-11-12T19:17:57.731Z,12.88
2018-11-12T19:20:25.300Z,13.02
2018-11-12T19:22:53.413Z,13.00
2018-11-12T19:25:21.162Z,12.99
2018-11-12T19:27:48.855Z,12.99
2018-11-12T19:30:18.149Z,12.91
2018-11-12T19:32:45.740Z,12.99
2018-11-12T19:35:14.202Z,12.98
2018-11-12T19:37:41.886Z,13.06
2018-11-12T19:40:11.909Z,13.05
2018-11-12T19:42:39.551Z,13.02
2018-11-12T19:45:07.764Z,13.06
2018-11-12T19:47:35.404Z,12.92
2018-11-12T19:50:03.284Z,12.85
2018-11-12T19:52:30.970Z,12.76
2018-11-12T19:54:58.745Z,12.81
2018-11-12T19:57:26.504Z,12.92
2018-11-12T19:59:54.040Z,13.02
2018-11-12T20:02:21.571Z,12.87
2018-11-12T20:04:49.190Z,12.85
2018-11-12T20:07:16.875Z,12.94
2018-11-12T20:09:44.551Z,12.80
2018-11-12T20:12:12.141Z,12.60
2018-11-12T20:14:39.976Z,12.49
2018-11-12T20:17:07.707Z,12.42
2018-11-12T20:19:35.354Z,12.45
2018-11-12T20:22:03.930Z,12.36
2018-11-12T20:24:32.728Z,12.23
2018-11-12T20:27:00.254Z,12.19
2018-11-12T20:29:28.463Z,12.11
2018-11-12T20:31:56.135Z,12.01
2018-11-12T20:34:23.662Z,11.97
2018-11-12T20:36:51.321Z,11.93
2018-11-12T20:39:18.909Z,11.94
2018-11-12T20:41:46.786Z,11.82
2018-11-12T20:44:14.775Z,11.80
2018-11-12T20:46:42.427Z,11.81
2018-11-12T20:49:09.975Z,11.76
2018-11-12T20:51:38.892Z,11.77
2018-11-12T20:54:07.456Z,11.80
2018-11-12T20:56:35.139Z,11.75
2018-11-12T20:59:02.839Z,11.77
2018-11-12T21:01:31.175Z,11.86
2018-11-12T21:03:58.823Z,11.74
2018-11-12T21:06:26.385Z,11.77
2018-11-12T21:08:53.955Z,11.81
2018-11-12T21:11:21.488Z,11.85
2018-11-12T21:13:49.106Z,11.80
2018-11-12T21:16:16.759Z,11.77
2018-11-12T21:18:44.319Z,11.81
2018-11-12T21:21:12.647Z,11.81
2018-11-12T21:23:40.406Z,11.83
2018-11-12T21:26:07.975Z,11.85
2018-11-12T21:28:35.626Z,11.81
2018-11-12T21:31:03.160Z,11.81
2018-11-12T21:33:30.858Z,11.79
2018-11-12T21:35:58.431Z,11.85
2018-11-12T21:38:26.026Z,11.86
2018-11-12T21:40:53.554Z,11.85
2018-11-12T21:43:21.236Z,11.80
2018-11-12T21:45:48.917Z,11.93
2018-11-12T21:48:16.470Z,11.89
2018-11-12T21:50:44.133Z,11.86
2018-11-12T21:53:11.973Z,11.87
2018-11-12T21:55:39.561Z,11.81
2018-11-12T21:58:07.202Z,11.83
2018-11-12T22:00:34.710Z,11.83
2018-11-12T22:03:03.790Z,11.84
2018-11-12T22:05:32.272Z,11.86
2018-11-12T22:08:00.145Z,12.00
2018-11-12T22:10:27.783Z,12.07
2018-11-12T22:12:55.701Z,12.02
2018-11-12T22:15:23.266Z,11.90
2018-11-12T22:17:50.946Z,11.88
2018-11-12T22:20:20.138Z,11.87
2018-11-12T22:22:47.640Z,11.87
2018-11-12T22:25:19.278Z,11.91
2018-11-12T22:27:47.553Z,11.87
2018-11-12T22:30:16.750Z,11.84
2018-11-12T22:32:45.940Z,11.92
2018-11-12T22:35:13.439Z,12.30
2018-11-12T22:37:41.505Z,12.37
2018-11-12T22:40:10.275Z,12.46
2018-11-12T22:42:38.034Z,12.35
2018-11-12T22:45:06.576Z,12.24
2018-11-12T22:47:34.262Z,12.04
2018-11-12T22:50:01.932Z,11.99
2018-11-12T22:52:29.566Z,11.99
2018-11-12T22:54:57.285Z,11.87
2018-11-12T22:57:24.814Z,12.01
2018-11-12T22:59:52.391Z,12.08
2018-11-12T23:02:19.916Z,11.89
2018-11-12T23:04:47.543Z,12.10
2018-11-12T23:07:15.185Z,12.08
2018-11-12T23:09:42.928Z,11.96
2018-11-12T23:12:10.443Z,11.91
2018-11-12T23:14:38.017Z,11.93
2018-11-12T23:17:05.551Z,11.99
2018-11-12T23:19:33.421Z,12.05
2018-11-12T23:22:01.023Z,12.10
2018-11-12T23:24:28.526Z,12.15
2018-11-12T23:26:56.406Z,12.19
2018-11-12T23:29:23.919Z,12.31
2018-11-12T23:31:51.430Z,12.42
2018-11-12T23:34:19.072Z,12.51
2018-11-12T23:36:46.579Z,12.56
2018-11-12T23:39:14.111Z,12.62
2018-11-12T23:41:41.593Z,12.65
2018-11-12T23:44:09.226Z,12.69
2018-11-12T23:46:36.866Z,12.80
2018-11-12T23:49:05.340Z,12.71
2018-11-12T23:51:32.866Z,12.82
2018-11-12T23:54:00.693Z,12.64
2018-11-12T23:56:28.246Z,12.48
2018-11-12T23:58:55.858Z,12.38
